createdAt,value
2023-04-18T00:01:23.794Z,9.46
2023-04-18T00:03:51.227Z,9.46
2023-04-18T00:06:18.033Z,9.43
2023-04-18T00:08:44.590Z,9.42
2023-04-18T00:11:11.202Z,9.45
2023-04-18T00:13:39.387Z,9.43
2023-04-18T00:16:07.798Z,9.40
2023-04-18T00:18:34.556Z,9.39
2023-04-18T00:21:02.057Z,9.40
2023-04-18T00:23:30.229Z,9.41
2023-04-18T00:25:57.492Z,9.38
2023-04-18T00:28:23.996Z,9.36
2023-04-18T00:30:50.780Z,9.36
2023-04-18T00:33:18.482Z,9.36
2023-04-18T00:35:45.022Z,9.37
2023-04-18T00:38:11.542Z,9.41
2023-04-18T00:40:38.830Z,9.38
2023-04-18T00:43:07.641Z,9.36
2023-04-18T00:45:34.595Z,9.38
2023-04-18T00:48:01.858Z,9.36
2023-04-18T00:50:28.676Z,9.36
2023-04-18T00:52:55.817Z,9.35
2023-04-18T00:55:22.863Z,9.33
2023-04-18T00:57:49.975Z,9.34
2023-04-18T01:00:16.842Z,9.33
2023-04-18T01:02:44.094Z,9.32
2023-04-18T01:05:10.702Z,9.35
2023-04-18T01:07:38.518Z,9.34
2023-04-18T01:10:05.628Z,9.33
2023-04-18T01:12:32.120Z,9.31
2023-04-18T01:15:00.806Z,9.35
2023-04-18T01:17:28.451Z,9.33
2023-04-18T01:19:55.125Z,9.31
2023-04-18T01:22:21.647Z,9.35
2023-04-18T01:24:48.151Z,9.31
2023-04-18T01:27:14.704Z,9.33
2023-04-18T01:29:41.200Z,9.32
2023-04-18T01:32:07.724Z,9.31
2023-04-18T01:34:34.237Z,9.31
2023-04-18T01:37:00.902Z,9.29
2023-04-18T01:39:28.412Z,9.29
2023-04-18T01:41:54.878Z,9.30
2023-04-18T01:44:21.364Z,9.29
2023-04-18T01:46:47.878Z,9.25
2023-04-18T01:49:14.564Z,9.28
2023-04-18T01:51:42.158Z,9.26
2023-04-18T01:54:08.678Z,9.23
2023-04-18T01:56:35.265Z,9.24
2023-04-18T01:59:01.913Z,9.25
2023-04-18T02:01:28.440Z,9.25
2023-04-18T02:03:55.275Z,9.22
2023-04-18T02:06:21.997Z,9.20
2023-04-18T02:08:48.557Z,9.19
2023-04-18T02:11:15.082Z,9.18
2023-04-18T02:13:41.801Z,9.18
2023-04-18T02:16:12.909Z,9.17
2023-04-18T02:18:40.192Z,9.15
2023-04-18T02:21:07.244Z,9.14
2023-04-18T02:23:33.739Z,9.15
2023-04-18T02:26:00.305Z,9.13
2023-04-18T02:28:26.773Z,9.14
2023-04-18T02:30:53.259Z,9.13
2023-04-18T02:33:19.730Z,9.14
2023-04-18T02:35:46.435Z,9.10
2023-04-18T02:38:13.804Z,9.10
2023-04-18T02:40:40.409Z,9.10
2023-04-18T02:43:06.954Z,9.10
2023-04-18T02:45:33.589Z,9.08
2023-04-18T02:48:00.173Z,9.10
2023-04-18T02:50:27.419Z,9.07
2023-04-18T02:52:53.946Z,9.07
2023-04-18T02:55:21.970Z,9.07
2023-04-18T02:57:48.495Z,9.07
2023-04-18T03:00:15.155Z,9.07
2023-04-18T03:02:41.851Z,9.08
2023-04-18T03:05:08.638Z,9.08
2023-04-18T03:07:35.391Z,9.07
2023-04-18T03:10:01.982Z,9.06
2023-04-18T03:12:28.527Z,9.08
2023-04-18T03:14:55.029Z,9.08
2023-04-18T03:17:21.575Z,9.06
2023-04-18T03:19:48.491Z,9.07
2023-04-18T03:22:16.130Z,9.07
2023-04-18T03:24:42.730Z,9.06
2023-04-18T03:27:09.316Z,9.07
2023-04-18T03:29:35.862Z,9.06
2023-04-18T03:32:02.362Z,9.06
2023-04-18T03:34:29.368Z,9.07
2023-04-18T03:36:56.091Z,9.06
2023-04-18T03:39:22.615Z,9.04
2023-04-18T03:41:49.846Z,9.04
2023-04-18T03:44:16.663Z,9.03
2023-04-18T03:46:43.348Z,9.04
2023-04-18T03:49:09.958Z,9.02
2023-04-18T03:51:44.168Z,9.02
2023-04-18T03:54:10.730Z,9.01
2023-04-18T03:56:37.335Z,9.03
2023-04-18T03:59:03.839Z,9.02
2023-04-18T04:01:30.374Z,9.01
2023-04-18T04:03:57.007Z,9.00
2023-04-18T04:06:24.079Z,8.99
2023-04-18T04:08:50.662Z,9.01
2023-04-18T04:11:17.581Z,9.01
2023-04-18T04:13:44.051Z,9.00
2023-04-18T04:16:10.652Z,9.00
2023-04-18T04:18:37.188Z,8.98
2023-04-18T04:21:03.994Z,8.98
2023-04-18T04:23:30.552Z,8.97
2023-04-18T04:25:58.659Z,8.98
2023-04-18T04:28:26.315Z,8.98
2023-04-18T04:30:53.869Z,8.97
2023-04-18T04:33:21.422Z,8.96
2023-04-18T04:35:47.999Z,8.96
2023-04-18T04:38:15.391Z,8.96
2023-04-18T04:40:42.796Z,8.96
2023-04-18T04:43:12.813Z,8.96
2023-04-18T04:45:41.556Z,8.95
2023-04-18T04:48:09.116Z,8.95
2023-04-18T04:50:40.378Z,8.94
2023-04-18T04:53:07.302Z,8.94
2023-04-18T04:55:34.313Z,8.93
2023-04-18T04:58:00.874Z,8.95
2023-04-18T05:00:28.830Z,8.92
2023-04-18T05:02:57.542Z,8.91
2023-04-18T05:05:24.513Z,8.90
2023-04-18T05:07:51.194Z,8.91
2023-04-18T05:10:17.798Z,8.91
2023-04-18T05:12:44.459Z,8.91
2023-04-18T05:15:12.484Z,8.90
2023-04-18T05:17:39.068Z,8.90
2023-04-18T05:20:06.331Z,8.90
2023-04-18T05:22:32.987Z,8.90
2023-04-18T05:24:59.520Z,8.91
2023-04-18T05:27:26.513Z,8.90
2023-04-18T05:29:53.146Z,8.89
2023-04-18T05:32:19.793Z,8.91
2023-04-18T05:34:46.936Z,8.91
2023-04-18T05:37:13.750Z,8.90
2023-04-18T05:39:40.902Z,8.89
2023-04-18T05:42:07.680Z,8.90
2023-04-18T05:44:34.190Z,8.89
2023-04-18T05:47:01.100Z,8.90
2023-04-18T05:49:27.683Z,8.89
2023-04-18T05:51:54.312Z,8.89
2023-04-18T05:54:25.089Z,8.91
2023-04-18T05:56:52.050Z,8.89
2023-04-18T05:59:18.611Z,8.92
2023-04-18T06:01:45.213Z,8.94
2023-04-18T06:04:11.910Z,8.94
2023-04-18T06:06:38.790Z,8.95
2023-04-18T06:09:05.421Z,8.96
2023-04-18T06:11:35.731Z,8.99
2023-04-18T06:14:03.234Z,9.02
2023-04-18T06:16:29.795Z,9.06
2023-04-18T06:18:59.678Z,9.08
2023-04-18T06:21:27.954Z,9.11
2023-04-18T06:23:54.714Z,9.12
2023-04-18T06:26:22.464Z,9.13
2023-04-18T06:28:49.026Z,9.15
2023-04-18T06:31:15.516Z,9.16
2023-04-18T06:33:42.142Z,9.18
2023-04-18T06:36:09.028Z,9.19
2023-04-18T06:38:35.966Z,9.21
2023-04-18T06:41:02.457Z,9.23
2023-04-18T06:43:28.963Z,9.26
2023-04-18T06:45:56.628Z,9.27
2023-04-18T06:48:23.266Z,9.29
2023-04-18T06:50:49.885Z,9.31
2023-04-18T06:53:16.394Z,9.32
2023-04-18T06:55:42.967Z,9.34
2023-04-18T06:58:10.265Z,9.36
2023-04-18T07:00:36.765Z,9.39
2023-04-18T07:03:11.267Z,9.40
2023-04-18T07:05:38.491Z,9.44
2023-04-18T07:08:05.114Z,9.46
2023-04-18T07:10:31.901Z,9.49
2023-04-18T07:12:58.490Z,9.51
2023-04-18T07:15:25.194Z,9.55
2023-04-18T07:17:51.761Z,9.57
2023-04-18T07:20:18.431Z,9.59
2023-04-18T07:22:45.877Z,9.62
2023-04-18T07:25:12.403Z,9.64
2023-04-18T07:27:39.054Z,9.68
2023-04-18T07:30:06.272Z,9.72
2023-04-18T07:32:32.930Z,9.75
2023-04-18T07:34:59.982Z,9.80
2023-04-18T07:37:26.701Z,9.82
2023-04-18T07:39:53.245Z,9.86
2023-04-18T07:42:19.897Z,9.89
2023-04-18T07:44:47.005Z,9.93
2023-04-18T07:47:13.481Z,9.98
2023-04-18T07:49:40.105Z,10.08
2023-04-18T07:52:06.754Z,10.13
2023-04-18T07:54:33.291Z,10.20
2023-04-18T07:56:59.989Z,10.25
2023-04-18T07:59:27.136Z,10.29
2023-04-18T08:01:53.685Z,10.33
2023-04-18T08:04:20.496Z,10.36
2023-04-18T08:06:47.105Z,10.39
2023-04-18T08:09:13.944Z,10.42
2023-04-18T08:11:42.313Z,10.44
2023-04-18T08:14:08.864Z,10.45
2023-04-18T08:16:35.452Z,10.48
2023-04-18T08:19:02.051Z,10.48
2023-04-18T08:21:28.522Z,10.51
2023-04-18T08:23:55.540Z,10.51
2023-04-18T08:26:22.231Z,10.52
2023-04-18T08:28:48.823Z,10.55
2023-04-18T08:31:16.391Z,10.59
2023-04-18T08:33:43.370Z,10.66
2023-04-18T08:36:10.568Z,10.75
2023-04-18T08:38:37.072Z,10.87
2023-04-18T08:41:03.588Z,10.99
2023-04-18T08:43:31.291Z,11.14
2023-04-18T08:45:59.705Z,11.26
2023-04-18T08:48:28.342Z,11.40
2023-04-18T08:50:59.511Z,11.55
2023-04-18T08:53:27.110Z,11.72
2023-04-18T08:55:57.318Z,11.89
2023-04-18T08:58:25.557Z,12.05
2023-04-18T09:00:55.435Z,12.24
2023-04-18T09:03:44.258Z,12.38
2023-04-18T09:06:13.958Z,12.53
2023-04-18T09:08:54.903Z,12.66
2023-04-18T09:11:30.105Z,12.83
2023-04-18T09:13:59.058Z,13.00
2023-04-18T09:16:28.059Z,13.20
2023-04-18T09:19:18.560Z,13.42
2023-04-18T09:21:48.925Z,13.62
2023-04-18T09:24:17.601Z,13.82
2023-04-18T09:26:44.152Z,13.98
2023-04-18T09:29:10.668Z,14.16
2023-04-18T09:32:00.107Z,14.32
2023-04-18T09:34:27.851Z,14.46
2023-04-18T09:37:09.226Z,14.65
2023-04-18T09:39:37.540Z,14.80
2023-04-18T09:42:04.201Z,14.97
2023-04-18T09:44:30.765Z,15.12
2023-04-18T09:46:57.339Z,15.24
2023-04-18T09:49:24.409Z,15.42
2023-04-18T09:51:53.502Z,15.37
2023-04-18T09:54:22.686Z,14.99
2023-04-18T09:56:51.691Z,14.93
2023-04-18T09:59:37.372Z,14.73
2023-04-18T10:02:08.155Z,14.85
2023-04-18T10:04:35.688Z,14.87
2023-04-18T10:07:02.722Z,14.80
2023-04-18T10:09:33.163Z,14.79
2023-04-18T10:12:02.278Z,14.82
2023-04-18T10:14:33.475Z,14.83
2023-04-18T10:17:00.244Z,14.99
2023-04-18T10:19:30.109Z,15.25
2023-04-18T10:21:58.759Z,15.30
2023-04-18T10:24:53.457Z,15.31
2023-04-18T10:27:49.352Z,15.37
2023-04-18T10:30:16.843Z,15.52
2023-04-18T10:32:43.700Z,15.51
2023-04-18T10:35:11.048Z,15.41
2023-04-18T10:37:59.481Z,15.49
2023-04-18T10:40:35.503Z,15.49
2023-04-18T10:43:02.346Z,15.52
2023-04-18T10:45:32.473Z,15.39
2023-04-18T10:48:26.438Z,15.53
2023-04-18T10:51:20.644Z,15.53
2023-04-18T10:53:52.437Z,15.74
2023-04-18T10:56:19.305Z,15.75
2023-04-18T10:58:51.855Z,15.99
2023-04-18T11:01:38.010Z,16.02
2023-04-18T11:04:13.363Z,16.16
2023-04-18T11:06:53.179Z,16.33
2023-04-18T11:09:19.736Z,16.54
2023-04-18T11:11:46.352Z,16.56
2023-04-18T11:14:13.264Z,16.68
2023-04-18T11:16:40.233Z,16.74
2023-04-18T11:19:25.693Z,16.67
2023-04-18T11:21:52.231Z,16.67
2023-04-18T11:24:24.082Z,16.71
2023-04-18T11:26:53.637Z,16.72
2023-04-18T11:29:20.225Z,16.80
2023-04-18T11:31:58.253Z,16.80
2023-04-18T11:34:32.739Z,16.80
2023-04-18T11:37:00.286Z,16.85
2023-04-18T11:39:26.976Z,16.90
2023-04-18T11:41:56.043Z,16.98
2023-04-18T11:44:26.882Z,17.10
2023-04-18T11:46:54.011Z,17.19
2023-04-18T11:49:32.989Z,17.23
2023-04-18T11:52:01.060Z,17.31
2023-04-18T11:54:44.590Z,17.38
2023-04-18T11:57:30.590Z,17.36
2023-04-18T11:59:59.202Z,17.40
2023-04-18T12:02:38.114Z,17.45
2023-04-18T12:05:05.689Z,17.54
2023-04-18T12:07:38.279Z,17.57
2023-04-18T12:10:07.569Z,17.67
2023-04-18T12:12:34.550Z,17.82
2023-04-18T12:15:08.994Z,17.89
2023-04-18T12:17:36.718Z,17.94
2023-04-18T12:20:05.641Z,18.00
2023-04-18T12:22:43.497Z,18.18
2023-04-18T12:25:24.354Z,18.31
2023-04-18T12:28:01.121Z,18.38
2023-04-18T12:30:37.350Z,18.49
2023-04-18T12:33:05.400Z,18.55
2023-04-18T12:35:32.466Z,18.53
2023-04-18T12:38:01.065Z,18.60
2023-04-18T12:40:28.506Z,18.77
2023-04-18T12:42:56.193Z,18.93
2023-04-18T12:45:23.840Z,18.97
2023-04-18T12:47:51.878Z,19.08
2023-04-18T12:50:24.400Z,19.25
2023-04-18T12:52:55.675Z,19.32
2023-04-18T12:55:22.951Z,19.51
2023-04-18T12:57:51.702Z,19.58
2023-04-18T13:00:18.378Z,19.63
2023-04-18T13:02:46.019Z,19.62
2023-04-18T13:05:14.845Z,19.79
2023-04-18T13:07:42.731Z,19.73
2023-04-18T13:10:20.431Z,19.65
2023-04-18T13:12:48.981Z,19.71
2023-04-18T13:15:22.621Z,19.75
2023-04-18T13:17:49.509Z,19.75
2023-04-18T13:20:16.488Z,19.74
2023-04-18T13:22:43.999Z,19.84
2023-04-18T13:25:11.553Z,19.81
2023-04-18T13:27:41.382Z,19.86
2023-04-18T13:30:11.372Z,19.92
2023-04-18T13:32:39.152Z,20.01
2023-04-18T13:35:08.272Z,20.23
2023-04-18T13:37:34.915Z,20.31
2023-04-18T13:40:01.571Z,20.24
2023-04-18T13:42:28.228Z,20.15
2023-04-18T13:44:54.792Z,20.14
2023-04-18T13:47:21.311Z,20.13
2023-04-18T13:49:47.838Z,20.26
2023-04-18T13:52:14.405Z,20.17
2023-04-18T13:54:42.254Z,20.28
2023-04-18T13:57:11.709Z,20.23
2023-04-18T13:59:42.379Z,20.22
2023-04-18T14:02:09.986Z,20.31
2023-04-18T14:04:37.199Z,20.40
2023-04-18T14:07:06.312Z,20.54
2023-04-18T14:09:33.294Z,20.55
2023-04-18T14:11:59.870Z,20.53
2023-04-18T14:14:26.567Z,20.46
2023-04-18T14:16:53.925Z,20.44
2023-04-18T14:19:20.584Z,20.56
2023-04-18T14:21:48.204Z,20.68
2023-04-18T14:24:14.816Z,20.60
2023-04-18T14:26:41.676Z,20.55
2023-04-18T14:29:08.213Z,20.65
2023-04-18T14:31:34.910Z,20.60
2023-04-18T14:34:01.630Z,20.60
2023-04-18T14:36:28.340Z,20.63
2023-04-18T14:38:55.159Z,20.65
2023-04-18T14:41:21.812Z,20.66
2023-04-18T14:43:48.637Z,20.66
2023-04-18T14:46:18.248Z,20.74
2023-04-18T14:48:46.638Z,20.82
2023-04-18T14:51:14.774Z,20.87
2023-04-18T14:53:41.500Z,20.86
2023-04-18T14:56:08.104Z,20.56
2023-04-18T14:58:34.615Z,20.51
2023-04-18T15:01:01.106Z,20.48
2023-04-18T15:03:27.972Z,20.35
2023-04-18T15:05:55.077Z,20.26
2023-04-18T15:08:22.062Z,20.24
2023-04-18T15:10:48.586Z,20.18
2023-04-18T15:13:15.832Z,20.14
2023-04-18T15:15:42.371Z,19.99
2023-04-18T15:18:09.004Z,19.90
2023-04-18T15:20:37.262Z,19.76
2023-04-18T15:23:07.052Z,19.75
2023-04-18T15:25:35.078Z,19.79
2023-04-18T15:28:01.629Z,19.69
2023-04-18T15:30:28.201Z,19.67
2023-04-18T15:32:54.788Z,19.64
2023-04-18T15:35:21.534Z,19.71
2023-04-18T15:37:49.150Z,19.71
2023-04-18T15:40:18.855Z,19.60
2023-04-18T15:42:45.899Z,19.62
2023-04-18T15:45:12.494Z,19.66
2023-04-18T15:47:39.087Z,19.64
2023-04-18T15:50:07.105Z,19.61
2023-04-18T15:52:33.888Z,19.58
2023-04-18T15:55:00.790Z,19.58
2023-04-18T15:57:29.642Z,19.44
2023-04-18T15:59:56.691Z,19.29
2023-04-18T16:02:23.259Z,19.32
2023-04-18T16:04:49.853Z,19.34
2023-04-18T16:07:16.689Z,19.25
2023-04-18T16:09:43.191Z,18.94
2023-04-18T16:12:09.715Z,18.83
2023-04-18T16:14:36.217Z,18.65
2023-04-18T16:17:03.131Z,18.72
2023-04-18T16:19:29.731Z,18.72
2023-04-18T16:21:56.360Z,18.59
2023-04-18T16:24:22.868Z,18.41
2023-04-18T16:26:49.380Z,18.46
2023-04-18T16:29:15.873Z,18.23
2023-04-18T16:31:43.291Z,17.95
2023-04-18T16:34:09.867Z,17.92
2023-04-18T16:36:36.386Z,17.79
2023-04-18T16:39:02.937Z,17.83
2023-04-18T16:41:29.432Z,17.92
2023-04-18T16:43:56.000Z,18.14
2023-04-18T16:46:22.589Z,18.30
2023-04-18T16:48:51.766Z,18.31
2023-04-18T16:51:21.533Z,18.32
2023-04-18T16:53:48.032Z,18.26
2023-04-18T16:56:14.883Z,18.23
2023-04-18T16:58:41.425Z,18.11
2023-04-18T17:01:24.881Z,18.05
2023-04-18T17:03:51.571Z,17.94
2023-04-18T17:06:19.433Z,17.84
2023-04-18T17:08:46.237Z,17.75
2023-04-18T17:11:12.724Z,17.65
2023-04-18T17:13:39.280Z,17.55
2023-04-18T17:16:07.237Z,17.47
2023-04-18T17:18:33.809Z,17.36
2023-04-18T17:21:00.320Z,17.28
2023-04-18T17:23:26.830Z,17.16
2023-04-18T17:25:53.407Z,17.05
2023-04-18T17:28:21.173Z,16.95
2023-04-18T17:30:47.687Z,16.83
2023-04-18T17:33:14.182Z,16.65
2023-04-18T17:35:41.637Z,16.53
2023-04-18T17:38:10.580Z,16.42
2023-04-18T17:40:37.406Z,16.31
2023-04-18T17:43:03.981Z,16.22
2023-04-18T17:45:30.689Z,16.13
2023-04-18T17:47:59.418Z,16.00
2023-04-18T17:50:26.021Z,15.91
2023-04-18T17:52:52.566Z,15.78
2023-04-18T17:55:19.163Z,15.70
2023-04-18T17:57:45.805Z,15.60
2023-04-18T18:00:13.908Z,15.48
2023-04-18T18:02:42.480Z,15.38
2023-04-18T18:05:13.738Z,15.27
2023-04-18T18:07:43.088Z,15.17
2023-04-18T18:10:10.830Z,15.11
2023-04-18T18:12:38.188Z,15.00
2023-04-18T18:15:05.398Z,14.92
2023-04-18T18:17:31.956Z,14.85
2023-04-18T18:19:58.491Z,14.75
2023-04-18T18:22:26.216Z,14.64
2023-04-18T18:24:52.842Z,14.56
2023-04-18T18:27:20.358Z,14.46
2023-04-18T18:29:48.064Z,14.37
2023-04-18T18:32:14.767Z,14.28
2023-04-18T18:34:41.267Z,14.19
2023-04-18T18:37:07.905Z,14.11
2023-04-18T18:39:34.456Z,14.00
2023-04-18T18:42:01.029Z,13.92
2023-04-18T18:44:27.605Z,13.85
2023-04-18T18:46:54.317Z,13.73
2023-04-18T18:49:21.105Z,13.68
2023-04-18T18:51:47.606Z,13.58
2023-04-18T18:54:14.225Z,13.49
2023-04-18T18:56:42.098Z,13.40
2023-04-18T18:59:08.680Z,13.26
2023-04-18T19:01:35.564Z,13.19
2023-04-18T19:04:02.720Z,13.09
2023-04-18T19:06:29.505Z,12.96
2023-04-18T19:08:56.046Z,12.88
2023-04-18T19:11:22.731Z,12.85
2023-04-18T19:13:51.922Z,12.73
2023-04-18T19:16:18.670Z,12.63
2023-04-18T19:18:47.086Z,12.57
2023-04-18T19:21:13.879Z,12.49
2023-04-18T19:23:41.883Z,12.40
2023-04-18T19:26:09.273Z,12.32
2023-04-18T19:28:36.044Z,12.23
2023-04-18T19:31:02.546Z,12.17
2023-04-18T19:33:29.425Z,12.10
2023-04-18T19:35:55.919Z,12.01
2023-04-18T19:38:22.565Z,11.93
2023-04-18T19:40:49.034Z,11.86
2023-04-18T19:43:15.611Z,11.80
2023-04-18T19:45:42.304Z,11.75
2023-04-18T19:48:08.818Z,11.72
2023-04-18T19:50:35.356Z,11.63
2023-04-18T19:53:01.957Z,11.52
2023-04-18T19:55:28.498Z,11.49
2023-04-18T19:57:56.768Z,11.44
2023-04-18T20:00:23.393Z,11.38
2023-04-18T20:02:50.161Z,11.29
2023-04-18T20:05:18.698Z,11.22
2023-04-18T20:07:45.312Z,11.21
2023-04-18T20:10:11.990Z,11.10
2023-04-18T20:12:38.557Z,11.06
2023-04-18T20:15:05.779Z,10.97
2023-04-18T20:17:34.469Z,10.91
2023-04-18T20:20:01.566Z,10.89
2023-04-18T20:22:28.216Z,10.84
2023-04-18T20:24:57.180Z,10.82
2023-04-18T20:27:24.147Z,10.72
2023-04-18T20:29:50.742Z,10.66
2023-04-18T20:32:17.302Z,10.62
2023-04-18T20:34:43.895Z,10.58
2023-04-18T20:37:10.483Z,10.49
2023-04-18T20:39:40.275Z,10.46
2023-04-18T20:42:07.028Z,10.36
2023-04-18T20:44:35.151Z,10.36
2023-04-18T20:47:02.342Z,10.33
2023-04-18T20:49:29.665Z,10.28
2023-04-18T20:51:56.427Z,10.22
2023-04-18T20:54:23.197Z,10.21
2023-04-18T20:56:49.742Z,10.19
2023-04-18T20:59:16.255Z,10.14
2023-04-18T21:01:42.859Z,10.11
2023-04-18T21:04:09.694Z,10.11
2023-04-18T21:06:36.761Z,10.13
2023-04-18T21:09:03.945Z,10.14
2023-04-18T21:11:30.592Z,10.12
2023-04-18T21:13:57.129Z,10.12
2023-04-18T21:16:24.253Z,10.11
2023-04-18T21:18:50.919Z,10.10
2023-04-18T21:21:17.714Z,10.07
2023-04-18T21:23:44.679Z,10.04
2023-04-18T21:26:13.199Z,10.03
2023-04-18T21:28:59.471Z,9.97
2023-04-18T21:31:28.703Z,9.91
2023-04-18T21:34:00.310Z,9.88
2023-04-18T21:36:28.025Z,9.82
2023-04-18T21:38:56.050Z,9.78
2023-04-18T21:41:23.701Z,9.71
2023-04-18T21:43:50.668Z,9.67
2023-04-18T21:46:18.036Z,9.60
2023-04-18T21:48:46.540Z,9.54
2023-04-18T21:51:15.052Z,9.53
2023-04-18T21:53:42.536Z,9.48
2023-04-18T21:56:09.231Z,9.40
2023-04-18T21:58:35.904Z,9.32
2023-04-18T22:01:02.622Z,9.27
2023-04-18T22:03:29.715Z,9.26
2023-04-18T22:05:56.676Z,9.18
2023-04-18T22:08:25.834Z,9.14
2023-04-18T22:10:56.362Z,9.14
2023-04-18T22:13:23.255Z,9.07
2023-04-18T22:15:51.500Z,9.03
2023-04-18T22:18:19.171Z,8.99
2023-04-18T22:20:46.992Z,8.96
2023-04-18T22:23:13.876Z,8.94
2023-04-18T22:25:40.909Z,8.89
2023-04-18T22:28:07.761Z,8.85
2023-04-18T22:30:34.380Z,8.82
2023-04-18T22:33:01.232Z,8.79
2023-04-18T22:35:27.958Z,8.72
2023-04-18T22:37:55.668Z,8.69
2023-04-18T22:40:22.366Z,8.68
2023-04-18T22:42:48.998Z,8.59
2023-04-18T22:45:15.578Z,8.61
2023-04-18T22:47:42.190Z,8.56
2023-04-18T22:50:09.108Z,8.53
2023-04-18T22:52:35.754Z,8.48
2023-04-18T22:55:03.270Z,8.47
2023-04-18T22:57:29.850Z,8.43
2023-04-18T22:59:57.127Z,8.38
2023-04-18T23:02:24.688Z,8.37
2023-04-18T23:04:51.410Z,8.34
2023-04-18T23:07:18.057Z,8.33
2023-04-18T23:09:44.980Z,8.27
2023-04-18T23:12:11.705Z,8.21
2023-04-18T23:14:39.368Z,8.18
2023-04-18T23:17:05.927Z,8.14
2023-04-18T23:19:32.418Z,8.14
2023-04-18T23:21:59.897Z,8.08
2023-04-18T23:24:26.809Z,8.12
2023-04-18T23:26:53.317Z,8.04
2023-04-18T23:29:19.837Z,8.05
2023-04-18T23:31:46.414Z,7.97
2023-04-18T23:34:13.087Z,8.00
2023-04-18T23:36:40.628Z,7.97
2023-04-18T23:39:08.476Z,7.97
2023-04-18T23:41:34.963Z,7.93
2023-04-18T23:44:01.501Z,7.89
2023-04-18T23:46:28.136Z,7.86
2023-04-18T23:48:54.706Z,7.82
2023-04-18T23:51:21.212Z,7.80
2023-04-18T23:53:47.720Z,7.74
2023-04-18T23:56:14.198Z,7.77
2023-04-18T23:58:40.967Z,7.71
